Stadt Schwerin — V2OK — position and weather

sailwx.info

Track history (hours):
 
Tides and Currents Weather Stations Pressure Air Temp Water Temp Dewpoint Dewpoint Depression Visibility Wind Speed Wind Dir Waves Ship Positions

Stadt Schwerin

Last reported at 2014-Dec-18 15:20 UTC. Time now 2014-Dec-20 21:35 UTC.
Position N 40°51' E 029°17'.

Length 158 m; draft 7.3 m.

Type: Cargo ship. MMSI: 304010999.

Date/timePositionNaut miles runAvg speedWind from/ knotsBaromVisibWave heightAir tempDewpointWater temp
2014-Dec-18 15:20N 40°51' E 029°17'0 0.0
2014-Dec-18 08:11N 40°51' E 029°17'1 2.1
2014-Dec-18 07:34N 40°51' E 029°16'1 1.0
2014-Dec-18 06:08N 40°50' E 029°14'0 0.0
2014-Dec-18 05:20N 40°50' E 029°14'0 0.1
2014-Dec-18 04:32N 40°50' E 029°14'0 0.0
2014-Dec-18 03:32N 40°50' E 029°14'0 0.0
2014-Dec-18 02:32N 40°50' E 029°14'0 0.0
2014-Dec-18 01:32N 40°50' E 029°14'0 0.1
2014-Dec-18 00:32N 40°50' E 029°14'0 0.0
2014-Dec-17 23:32N 40°50' E 029°14'0 0.1
2014-Dec-17 22:32N 40°50' E 029°14'0 0.1
2014-Dec-17 21:26N 40°50' E 029°14'0 0.1
2014-Dec-17 20:32N 40°50' E 029°14'0 0.2
2014-Dec-17 19:32N 40°50' E 029°14'0 0.0
2014-Dec-17 18:26N 40°50' E 029°14'0 0.0
2014-Dec-17 17:26N 40°50' E 029°14'0 0.0
2014-Dec-17 16:32N 40°50' E 029°14'0 0.0
2014-Dec-17 15:32N 40°50' E 029°14'0 0.0
2014-Dec-17 14:26N 40°50' E 029°14'0 0.0
2014-Dec-17 13:20N 40°50' E 029°14'0 0.1
2014-Dec-17 12:32N 40°50' E 029°14'0 0.0
2014-Dec-17 11:32N 40°50' E 029°14'0 0.0
2014-Dec-17 10:32N 40°50' E 029°14'0 0.0
2014-Dec-17 09:26N 40°50' E 029°14'0 0.0
2014-Dec-17 08:32N 40°50' E 029°14'0 0.0
2014-Dec-17 07:32N 40°50' E 029°14'0 0.0
2014-Dec-17 06:32N 40°50' E 029°14'0 0.0
2014-Dec-17 05:26N 40°50' E 029°14'0 0.0
2014-Dec-17 04:32N 40°50' E 029°14'0 0.0
2014-Dec-17 03:32N 40°50' E 029°14'0 0.0
2014-Dec-17 02:26N 40°50' E 029°14'0 0.0
2014-Dec-17 01:32N 40°50' E 029°14'0 0.0
2014-Dec-17 00:32N 40°50' E 029°14'0 0.0
2014-Dec-16 23:28N 40°50' E 029°14'0 0.0
2014-Dec-16 22:28N 40°50' E 029°14'0 0.0
2014-Dec-16 21:28N 40°50' E 029°14'0 0.0
2014-Dec-16 20:22N 40°50' E 029°14'0 0.0
2014-Dec-16 19:28N 40°50' E 029°14'0 0.0
2014-Dec-16 18:28N 40°50' E 029°14'0 0.1
2014-Dec-16 17:28N 40°50' E 029°14'0 0.0
2014-Dec-16 16:28N 40°50' E 029°14'0 0.0
2014-Dec-16 15:28N 40°50' E 029°14'0 0.0
2014-Dec-16 14:16N 40°50' E 029°14'0 0.0
2014-Dec-16 13:22N 40°50' E 029°14'0 0.0
2014-Dec-16 12:28N 40°50' E 029°14'0 0.0
2014-Dec-16 11:28N 40°50' E 029°14'0 0.0
2014-Dec-16 10:22N 40°50' E 029°14'0 0.0
2014-Dec-16 09:28N 40°50' E 029°14'0 0.1
2014-Dec-16 08:28N 40°50' E 029°14'0 0.0
2014-Dec-16 07:28N 40°50' E 029°14'0 0.1
2014-Dec-16 06:28N 40°50' E 029°14'  
2014-Dec-12 20:28N 38°20' E 024°51'9 8.8
2014-Dec-12 19:26N 38°11' E 024°47'16 8.3
2014-Dec-12 17:27N 37°57' E 024°37'8 8.2
2014-Dec-12 16:28N 37°51' E 024°30'910.0
2014-Dec-12 15:33N 37°45' E 024°22'1310.1
2014-Dec-12 14:19N 37°37' E 024°10'810.5
2014-Dec-12 13:33N 37°30' E 024°04'1110.3
2014-Dec-12 12:30N 37°21' E 023°57'1310.6
2014-Dec-12 11:19N 37°10' E 023°48'1810.0
2014-Dec-12 09:33N 36°55' E 023°37'1110.8
2014-Dec-12 08:33N 36°46' E 023°30'  
Track history (hours):
 
Tides and Currents Weather Stations Pressure Air Temp Water Temp Dewpoint Dewpoint Depression Visibility Wind Speed Wind Dir Waves Ship Positions

Stadt Schwerin

Last reported at 2014-Dec-18 15:20 UTC. Time now 2014-Dec-20 21:35 UTC.
Position N 40°51' E 029°17'.

Length 158 m; draft 7.3 m.

Type: Cargo ship. MMSI: 304010999.

Date/timePositionNaut miles runAvg speedWind from/ knotsBaromVisibWave heightAir tempDewpointWater temp
2014-Dec-18 15:20N 40°51' E 029°17'0 0.0
2014-Dec-18 08:11N 40°51' E 029°17'1 2.1
2014-Dec-18 07:34N 40°51' E 029°16'1 1.0
2014-Dec-18 06:08N 40°50' E 029°14'0 0.0
2014-Dec-18 05:20N 40°50' E 029°14'0 0.1
2014-Dec-18 04:32N 40°50' E 029°14'0 0.0
2014-Dec-18 03:32N 40°50' E 029°14'0 0.0
2014-Dec-18 02:32N 40°50' E 029°14'0 0.0
2014-Dec-18 01:32N 40°50' E 029°14'0 0.1
2014-Dec-18 00:32N 40°50' E 029°14'0 0.0
2014-Dec-17 23:32N 40°50' E 029°14'0 0.1
2014-Dec-17 22:32N 40°50' E 029°14'0 0.1
2014-Dec-17 21:26N 40°50' E 029°14'0 0.1
2014-Dec-17 20:32N 40°50' E 029°14'0 0.2
2014-Dec-17 19:32N 40°50' E 029°14'0 0.0
2014-Dec-17 18:26N 40°50' E 029°14'0 0.0
2014-Dec-17 17:26N 40°50' E 029°14'0 0.0
2014-Dec-17 16:32N 40°50' E 029°14'0 0.0
2014-Dec-17 15:32N 40°50' E 029°14'0 0.0
2014-Dec-17 14:26N 40°50' E 029°14'0 0.0
2014-Dec-17 13:20N 40°50' E 029°14'0 0.1
2014-Dec-17 12:32N 40°50' E 029°14'0 0.0
2014-Dec-17 11:32N 40°50' E 029°14'0 0.0
2014-Dec-17 10:32N 40°50' E 029°14'0 0.0
2014-Dec-17 09:26N 40°50' E 029°14'0 0.0
2014-Dec-17 08:32N 40°50' E 029°14'0 0.0
2014-Dec-17 07:32N 40°50' E 029°14'0 0.0
2014-Dec-17 06:32N 40°50' E 029°14'0 0.0
2014-Dec-17 05:26N 40°50' E 029°14'0 0.0
2014-Dec-17 04:32N 40°50' E 029°14'0 0.0
2014-Dec-17 03:32N 40°50' E 029°14'0 0.0
2014-Dec-17 02:26N 40°50' E 029°14'0 0.0
2014-Dec-17 01:32N 40°50' E 029°14'0 0.0
2014-Dec-17 00:32N 40°50' E 029°14'0 0.0
2014-Dec-16 23:28N 40°50' E 029°14'0 0.0
2014-Dec-16 22:28N 40°50' E 029°14'0 0.0
2014-Dec-16 21:28N 40°50' E 029°14'0 0.0
2014-Dec-16 20:22N 40°50' E 029°14'0 0.0
2014-Dec-16 19:28N 40°50' E 029°14'0 0.0
2014-Dec-16 18:28N 40°50' E 029°14'0 0.1
2014-Dec-16 17:28N 40°50' E 029°14'0 0.0
2014-Dec-16 16:28N 40°50' E 029°14'0 0.0
2014-Dec-16 15:28N 40°50' E 029°14'0 0.0
2014-Dec-16 14:16N 40°50' E 029°14'0 0.0
2014-Dec-16 13:22N 40°50' E 029°14'0 0.0
2014-Dec-16 12:28N 40°50' E 029°14'0 0.0
2014-Dec-16 11:28N 40°50' E 029°14'0 0.0
2014-Dec-16 10:22N 40°50' E 029°14'0 0.0
2014-Dec-16 09:28N 40°50' E 029°14'0 0.1
2014-Dec-16 08:28N 40°50' E 029°14'0 0.0
2014-Dec-16 07:28N 40°50' E 029°14'0 0.1
2014-Dec-16 06:28N 40°50' E 029°14'  
2014-Dec-12 20:28N 38°20' E 024°51'9 8.8
2014-Dec-12 19:26N 38°11' E 024°47'16 8.3
2014-Dec-12 17:27N 37°57' E 024°37'8 8.2
2014-Dec-12 16:28N 37°51' E 024°30'910.0
2014-Dec-12 15:33N 37°45' E 024°22'1310.1
2014-Dec-12 14:19N 37°37' E 024°10'810.5
2014-Dec-12 13:33N 37°30' E 024°04'1110.3
2014-Dec-12 12:30N 37°21' E 023°57'1310.6
2014-Dec-12 11:19N 37°10' E 023°48'1810.0
2014-Dec-12 09:33N 36°55' E 023°37'1110.8
2014-Dec-12 08:33N 36°46' E 023°30'  

Dump ship's entire track history